createdAt,value
2019-04-22T00:36:14.000Z,70.08
2019-04-22T01:29:02.000Z,72.11
2019-04-22T01:33:50.000Z,72.81
2019-04-22T01:38:38.000Z,73.55
2019-04-22T01:43:26.000Z,73.66
2019-04-22T01:48:13.000Z,73.66
2019-04-22T01:53:01.000Z,73.38
2019-04-22T01:57:49.000Z,73.76
2019-04-22T02:02:37.000Z,74.31
2019-04-22T02:07:25.000Z,74.48
2019-04-22T02:12:13.000Z,74.60
2019-04-22T02:17:01.000Z,75.19
2019-04-22T02:21:49.000Z,75.32
2019-04-22T02:21:49.000Z,75.32
2019-04-22T02:26:37.000Z,75.33
2019-04-22T02:31:25.000Z,75.73
2019-04-22T02:31:25.000Z,75.73
2019-04-22T02:41:01.000Z,76.38
2019-04-22T02:45:48.000Z,76.69
2019-04-22T02:50:36.000Z,76.71
2019-04-22T02:55:24.000Z,76.78
2019-04-22T03:04:59.000Z,77.30
2019-04-22T03:09:47.000Z,77.26
2019-04-22T03:14:35.000Z,77.20
2019-04-22T03:14:35.000Z,77.20
2019-04-22T03:19:23.000Z,77.21
2019-04-22T03:24:11.000Z,77.59
2019-04-22T03:28:59.000Z,78.02
2019-04-22T03:33:47.000Z,77.83
2019-04-22T03:33:47.000Z,77.83
2019-04-22T03:38:35.000Z,77.87
2019-04-22T03:38:35.000Z,77.87
2019-04-22T03:43:22.000Z,77.44
2019-04-22T03:48:10.000Z,77.47
2019-04-22T03:52:58.000Z,77.49
2019-04-22T03:57:46.000Z,77.93
2019-04-22T04:02:33.000Z,77.73
2019-04-22T04:07:21.000Z,77.51
2019-04-22T04:12:09.000Z,78.21
2019-04-22T04:16:57.000Z,78.63
2019-04-22T04:21:45.000Z,78.85
2019-04-22T04:26:32.000Z,78.71
2019-04-22T04:26:32.000Z,78.71
2019-04-22T04:31:20.000Z,78.93
2019-04-22T04:36:08.000Z,79.55
2019-04-22T04:40:56.000Z,80.95
2019-04-22T04:45:45.000Z,81.69
2019-04-22T04:50:33.000Z,81.80
2019-04-22T04:55:21.000Z,81.58
2019-04-22T05:00:09.000Z,81.08
2019-04-22T05:00:09.000Z,81.08
2019-04-22T05:04:58.000Z,80.37
2019-04-22T05:09:46.000Z,79.83
2019-04-22T05:14:34.000Z,79.04
2019-04-22T05:19:23.000Z,78.24
2019-04-22T05:24:12.000Z,77.38
2019-04-22T05:29:01.000Z,76.28
2019-04-22T05:33:49.000Z,74.95
2019-04-22T05:38:38.000Z,73.53
2019-04-22T05:43:27.000Z,72.21
2019-04-22T05:48:16.000Z,71.30
2019-04-22T05:53:05.000Z,70.52
2019-04-22T05:57:53.000Z,69.34
2019-04-22T06:02:42.000Z,68.07
2019-04-22T06:07:31.000Z,66.42
2019-04-22T06:12:20.000Z,65.74
2019-04-22T06:17:09.000Z,62.99
2019-04-22T06:21:58.000Z,61.83
2019-04-22T06:26:47.000Z,60.48
2019-04-22T06:31:35.000Z,58.53
2019-04-22T06:36:24.000Z,56.97
2019-04-22T06:41:13.000Z,56.08
2019-04-22T06:46:02.000Z,54.48
2019-04-22T06:50:51.000Z,50.83
2019-04-22T06:55:39.000Z,50.36
2019-04-22T07:00:28.000Z,48.46
2019-04-22T07:05:17.000Z,45.63
2019-04-22T07:10:05.000Z,42.73
2019-04-22T07:14:53.000Z,40.72
2019-04-22T07:19:41.000Z,39.03
2019-04-22T07:24:29.000Z,39.94
2019-04-22T07:29:18.000Z,39.98
2019-04-22T07:34:06.000Z,39.64
2019-04-22T07:38:55.000Z,38.90
2019-04-22T07:43:43.000Z,38.31
2019-04-22T07:48:32.000Z,38.08
2019-04-22T07:53:21.000Z,37.57
2019-04-22T07:58:09.000Z,37.71
2019-04-22T08:02:57.000Z,37.02
2019-04-22T08:07:46.000Z,37.41
2019-04-22T08:12:35.000Z,36.17
2019-04-22T08:17:23.000Z,35.66
2019-04-22T08:22:12.000Z,35.22
2019-04-22T08:27:00.000Z,34.14
2019-04-22T08:31:49.000Z,33.47
2019-04-22T08:36:36.000Z,34.56
2019-04-22T08:41:25.000Z,33.94
2019-04-22T08:46:13.000Z,34.37
2019-04-22T08:51:02.000Z,34.08
2019-04-22T08:55:51.000Z,33.65
2019-04-22T09:00:39.000Z,33.23
2019-04-22T09:05:28.000Z,33.08
2019-04-22T09:10:17.000Z,32.65
2019-04-22T09:15:05.000Z,32.73
2019-04-22T09:19:54.000Z,32.56
2019-04-22T09:24:42.000Z,32.50
2019-04-22T09:29:31.000Z,32.52
2019-04-22T09:34:19.000Z,31.77
2019-04-22T09:39:07.000Z,31.91
2019-04-22T09:43:56.000Z,31.92
2019-04-22T09:48:45.000Z,31.26
2019-04-22T09:53:33.000Z,31.04
2019-04-22T09:58:22.000Z,31.32
2019-04-22T10:03:10.000Z,30.91
2019-04-22T10:07:59.000Z,31.06
2019-04-22T10:12:47.000Z,31.46
2019-04-22T10:17:36.000Z,31.13
2019-04-22T10:22:24.000Z,31.18
2019-04-22T10:27:13.000Z,31.08
2019-04-22T10:32:02.000Z,31.06
2019-04-22T10:36:51.000Z,30.93
2019-04-22T10:41:39.000Z,30.33
2019-04-22T10:46:28.000Z,30.33
2019-04-22T10:51:17.000Z,30.14
2019-04-22T10:56:06.000Z,29.97
2019-04-22T11:00:54.000Z,28.75
2019-04-22T11:05:41.000Z,29.22
2019-04-22T11:10:30.000Z,29.25
2019-04-22T11:15:18.000Z,29.78
2019-04-22T11:20:07.000Z,29.38
2019-04-22T11:24:55.000Z,29.46
2019-04-22T11:29:44.000Z,29.00
2019-04-22T11:34:33.000Z,29.13
2019-04-22T11:39:22.000Z,28.04
2019-04-22T11:44:10.000Z,27.98
2019-04-22T11:48:59.000Z,27.38
2019-04-22T11:53:47.000Z,27.55
2019-04-22T11:58:35.000Z,27.21
2019-04-22T12:03:24.000Z,27.64
2019-04-22T12:08:12.000Z,27.33
2019-04-22T12:13:00.000Z,27.28
2019-04-22T12:17:49.000Z,27.58
2019-04-22T12:22:38.000Z,26.93
2019-04-22T12:27:26.000Z,27.23
2019-04-22T12:32:15.000Z,26.83
2019-04-22T12:37:03.000Z,27.07
2019-04-22T12:41:51.000Z,26.73
2019-04-22T12:46:39.000Z,27.42
2019-04-22T12:51:27.000Z,27.61
2019-04-22T12:56:15.000Z,27.53
2019-04-22T13:01:04.000Z,27.23
2019-04-22T13:05:53.000Z,27.59
2019-04-22T13:10:41.000Z,26.35
2019-04-22T13:15:29.000Z,26.86
2019-04-22T13:20:17.000Z,26.66
2019-04-22T13:25:05.000Z,26.84
2019-04-22T13:29:54.000Z,26.87
2019-04-22T13:34:43.000Z,26.64
2019-04-22T13:39:31.000Z,25.79
2019-04-22T13:44:18.000Z,26.10
2019-04-22T13:49:07.000Z,26.67
2019-04-22T13:53:54.000Z,27.85
2019-04-22T13:53:54.000Z,27.85
2019-04-22T13:58:43.000Z,27.59
2019-04-22T14:03:31.000Z,27.46
2019-04-22T14:08:19.000Z,27.79
2019-04-22T14:13:07.000Z,27.77
2019-04-22T14:17:55.000Z,28.05
2019-04-22T14:22:43.000Z,28.06
2019-04-22T14:27:34.000Z,28.54
2019-04-22T14:32:19.000Z,28.03
2019-04-22T14:37:07.000Z,27.52
2019-04-22T14:41:55.000Z,27.34
2019-04-22T14:46:43.000Z,27.33
2019-04-22T14:51:32.000Z,28.04
2019-04-22T14:56:20.000Z,27.89
2019-04-22T15:01:08.000Z,28.27
2019-04-22T15:05:56.000Z,28.06
2019-04-22T15:10:44.000Z,28.53
2019-04-22T15:15:32.000Z,29.12
2019-04-22T15:20:21.000Z,29.35
2019-04-22T15:25:09.000Z,29.03
2019-04-22T15:29:57.000Z,29.20
2019-04-22T15:39:33.000Z,30.08
2019-04-22T15:44:20.000Z,31.04
2019-04-22T15:49:08.000Z,32.86
2019-04-22T15:53:55.000Z,33.93
2019-04-22T15:58:43.000Z,34.28
2019-04-22T16:03:31.000Z,34.85
2019-04-22T16:08:20.000Z,35.07
2019-04-22T16:13:08.000Z,35.55
2019-04-22T16:17:56.000Z,35.53
2019-04-22T16:22:44.000Z,35.84
2019-04-22T16:27:32.000Z,36.03
2019-04-22T16:32:20.000Z,36.34
2019-04-22T16:37:08.000Z,36.93
2019-04-22T16:41:56.000Z,36.90
2019-04-22T16:46:44.000Z,37.09
2019-04-22T16:51:32.000Z,37.09
2019-04-22T16:56:20.000Z,37.24
2019-04-22T17:01:08.000Z,37.60
2019-04-22T17:05:56.000Z,37.85
2019-04-22T17:10:44.000Z,37.94
2019-04-22T17:15:32.000Z,38.11
2019-04-22T17:20:20.000Z,38.15
2019-04-22T17:25:08.000Z,37.54
2019-04-22T17:29:56.000Z,37.63
2019-04-22T17:34:44.000Z,37.69
2019-04-22T17:39:32.000Z,36.91
2019-04-22T17:44:20.000Z,36.92
2019-04-22T17:49:08.000Z,37.00
2019-04-22T17:53:56.000Z,36.99
2019-04-22T17:58:44.000Z,37.36
2019-04-22T18:03:32.000Z,37.71
2019-04-22T18:08:20.000Z,38.13
2019-04-22T18:08:20.000Z,38.13
2019-04-22T18:13:08.000Z,38.92
2019-04-22T18:17:56.000Z,39.34
2019-04-22T18:22:44.000Z,39.88
2019-04-22T18:27:32.000Z,40.63
2019-04-22T18:32:20.000Z,41.14
2019-04-22T18:37:08.000Z,41.40
2019-04-22T18:41:56.000Z,42.36
2019-04-22T18:46:45.000Z,42.85
2019-04-22T18:51:33.000Z,43.70
2019-04-22T18:56:21.000Z,44.10
2019-04-22T19:01:09.000Z,44.37
2019-04-22T19:05:57.000Z,44.85
2019-04-22T19:10:45.000Z,45.34
2019-04-22T19:15:33.000Z,45.31
2019-04-22T19:20:21.000Z,45.65
2019-04-22T19:25:10.000Z,45.96
2019-04-22T19:29:58.000Z,46.78
2019-04-22T19:34:46.000Z,46.94
2019-04-22T19:39:34.000Z,47.38
2019-04-22T19:44:22.000Z,47.11
2019-04-22T19:49:17.000Z,48.63
2019-04-22T19:54:00.000Z,48.32
2019-04-22T19:58:44.000Z,49.40
2019-04-22T20:03:33.000Z,49.84
2019-04-22T20:08:21.000Z,50.07
2019-04-22T20:13:09.000Z,50.55
2019-04-22T20:17:57.000Z,51.27
2019-04-22T20:22:45.000Z,51.46
2019-04-22T20:32:21.000Z,52.13
2019-04-22T20:37:09.000Z,52.46
2019-04-22T20:41:56.000Z,52.41
2019-04-22T20:46:45.000Z,52.68
2019-04-22T20:51:33.000Z,52.81
2019-04-22T20:56:21.000Z,52.56
2019-04-22T21:01:10.000Z,53.14
2019-04-22T21:05:58.000Z,53.17
2019-04-22T21:10:47.000Z,53.19
2019-04-22T21:15:35.000Z,53.36
2019-04-22T21:20:24.000Z,53.38
2019-04-22T21:25:12.000Z,53.68
2019-04-22T21:30:00.000Z,53.79
2019-04-22T21:34:48.000Z,53.39
2019-04-22T21:39:36.000Z,53.49
2019-04-22T21:44:24.000Z,53.68
2019-04-22T21:49:12.000Z,53.82
2019-04-22T21:54:01.000Z,53.85
2019-04-22T21:58:49.000Z,54.17
2019-04-22T22:03:37.000Z,54.32
2019-04-22T22:08:25.000Z,54.91
2019-04-22T22:13:13.000Z,55.21
2019-04-22T22:18:02.000Z,55.34
2019-04-22T22:22:50.000Z,55.69
2019-04-22T22:27:38.000Z,55.82
2019-04-22T22:32:26.000Z,56.15
2019-04-22T22:37:14.000Z,56.65
2019-04-22T22:42:02.000Z,56.84
2019-04-22T22:46:50.000Z,56.98
2019-04-22T22:51:38.000Z,57.19
2019-04-22T22:51:38.000Z,57.19
2019-04-22T22:56:27.000Z,57.51
2019-04-22T23:01:15.000Z,57.93
2019-04-22T23:06:03.000Z,57.95
2019-04-22T23:10:51.000Z,58.21
2019-04-22T23:15:39.000Z,58.63
2019-04-22T23:20:27.000Z,58.88
2019-04-22T23:25:16.000Z,58.83
2019-04-22T23:30:04.000Z,59.72
2019-04-22T23:34:52.000Z,59.98
2019-04-22T23:39:40.000Z,60.27
2019-04-22T23:44:28.000Z,60.54
2019-04-22T23:49:16.000Z,60.84
2019-04-22T23:54:04.000Z,60.92
2019-04-22T23:58:53.000Z,61.21
